sensor_id;sensor_type;location;lat;lon;timestamp;temperature;humidity
6556;DHT22;3311;48.32423000;14.29074500;2022-12-05T08:34:01;10.30;65.30
6556;DHT22;3311;48.32423000;14.29074500;2022-12-05T08:36:29;10.30;65.40
6556;DHT22;3311;48.32423000;14.29074500;2022-12-05T08:38:58;10.30;65.50
6556;DHT22;3311;48.32423000;14.29074500;2022-12-05T08:41:25;10.30;65.60
6556;DHT22;3311;48.32423000;14.29074500;2022-12-05T08:43:59;10.30;65.80
6556;DHT22;3311;48.32423000;14.29074500;2022-12-05T08:46:33;10.40;65.70
6556;DHT22;3311;48.32423000;14.29074500;2022-12-05T08:49:02;10.40;65.60
6556;DHT22;3311;48.32423000;14.29074500;2022-12-05T08:51:30;10.30;65.70
6556;DHT22;3311;48.32423000;14.29074500;2022-12-05T08:53:57;10.20;66.20
6556;DHT22;3311;48.32423000;14.29074500;2022-12-05T08:56:25;10.20;66.40
6556;DHT22;3311;48.32423000;14.29074500;2022-12-05T08:58:53;10.20;66.90
6556;DHT22;3311;48.32423000;14.29074500;2022-12-05T09:01:21;10.20;66.30
6556;DHT22;3311;48.32423000;14.29074500;2022-12-05T09:03:50;10.20;66.30
6556;DHT22;3311;48.32423000;14.29074500;2022-12-05T09:06:21;10.20;66.60
6556;DHT22;3311;48.32423000;14.29074500;2022-12-05T09:08:51;10.20;66.50
6556;DHT22;3311;48.32423000;14.29074500;2022-12-05T09:11:22;10.10;66.80
6556;DHT22;3311;48.32423000;14.29074500;2022-12-05T09:13:52;10.10;66.90
6556;DHT22;3311;48.32423000;14.29074500;2022-12-05T09:16:22;10.10;67.00
6556;DHT22;3311;48.32423000;14.29074500;2022-12-05T09:18:50;10.10;66.90
6556;DHT22;3311;48.32423000;14.29074500;2022-12-05T09:21:20;10.00;66.90
6556;DHT22;3311;48.32423000;14.29074500;2022-12-05T09:23:48;10.20;66.90
6556;DHT22;3311;48.32423000;14.29074500;2022-12-05T09:26:19;10.30;66.30
6556;DHT22;3311;48.32423000;14.29074500;2022-12-05T09:28:46;10.30;65.90
6556;DHT22;3311;48.32423000;14.29074500;2022-12-05T09:31:17;10.20;66.00
6556;DHT22;3311;48.32423000;14.29074500;2022-12-05T09:33:45;10.20;66.30
6556;DHT22;3311;48.32423000;14.29074500;2022-12-05T09:36:18;10.30;66.20
6556;DHT22;3311;48.32423000;14.29074500;2022-12-05T09:38:48;10.30;66.10
6556;DHT22;3311;48.32423000;14.29074500;2022-12-05T09:41:24;10.30;66.10
6556;DHT22;3311;48.32423000;14.29074500;2022-12-05T09:44:11;10.40;66.00
6556;DHT22;3311;48.32423000;14.29074500;2022-12-05T09:46:51;10.40;65.70
6556;DHT22;3311;48.32423000;14.29074500;2022-12-05T09:49:19;10.40;65.60
6556;DHT22;3311;48.32423000;14.29074500;2022-12-05T09:51:48;10.40;65.50
6556;DHT22;3311;48.32423000;14.29074500;2022-12-05T09:54:18;10.40;65.60
6556;DHT22;3311;48.32423000;14.29074500;2022-12-05T09:56:48;10.50;65.50
6556;DHT22;3311;48.32423000;14.29074500;2022-12-05T09:59:16;10.50;65.50
6556;DHT22;3311;48.32423000;14.29074500;2022-12-05T10:01:51;10.50;65.30
6556;DHT22;3311;48.32423000;14.29074500;2022-12-05T10:04:52;10.50;65.30
6556;DHT22;3311;48.32423000;14.29074500;2022-12-05T10:07:30;10.50;65.20
6556;DHT22;3311;48.32423000;14.29074500;2022-12-05T10:10:19;10.40;65.40
6556;DHT22;3311;48.32423000;14.29074500;2022-12-05T10:12:56;10.40;65.50
6556;DHT22;3311;48.32423000;14.29074500;2022-12-05T10:15:30;10.40;65.40
6556;DHT22;3311;48.32423000;14.29074500;2022-12-05T10:18:01;10.40;65.30
6556;DHT22;3311;48.32423000;14.29074500;2022-12-05T10:20:36;10.40;65.40
6556;DHT22;3311;48.32423000;14.29074500;2022-12-05T10:23:10;10.40;65.30
6556;DHT22;3311;48.32423000;14.29074500;2022-12-05T10:25:40;10.50;65.50
6556;DHT22;3311;48.32423000;14.29074500;2022-12-05T10:28:15;10.60;65.70
6556;DHT22;3311;48.32423000;14.29074500;2022-12-05T10:30:45;10.50;65.50
6556;DHT22;3311;48.32423000;14.29074500;2022-12-05T10:33:17;10.40;65.80
6556;DHT22;3311;48.32423000;14.29074500;2022-12-05T10:35:45;10.50;66.00
6556;DHT22;3311;48.32423000;14.29074500;2022-12-05T10:38:22;10.40;66.00
6556;DHT22;3311;48.32423000;14.29074500;2022-12-05T10:40:53;10.40;66.00
6556;DHT22;3311;48.32423000;14.29074500;2022-12-05T10:43:24;10.50;65.90
6556;DHT22;3311;48.32423000;14.29074500;2022-12-05T10:45:52;10.40;66.00
6556;DHT22;3311;48.32423000;14.29074500;2022-12-05T10:48:20;10.50;66.10
6556;DHT22;3311;48.32423000;14.29074500;2022-12-05T10:50:51;10.50;65.90
6556;DHT22;3311;48.32423000;14.29074500;2022-12-05T10:53:22;10.50;65.90
6556;DHT22;3311;48.32423000;14.29074500;2022-12-05T10:55:52;10.60;65.90
6556;DHT22;3311;48.32423000;14.29074500;2022-12-05T10:58:24;10.60;65.80
6556;DHT22;3311;48.32423000;14.29074500;2022-12-05T11:00:52;10.60;65.90
6556;DHT22;3311;48.32423000;14.29074500;2022-12-05T11:03:28;10.60;66.00
6556;DHT22;3311;48.32423000;14.29074500;2022-12-05T11:05:59;10.60;66.00
6556;DHT22;3311;48.32423000;14.29074500;2022-12-05T11:08:29;10.50;66.20
6556;DHT22;3311;48.32423000;14.29074500;2022-12-05T11:11:03;10.50;66.30
6556;DHT22;3311;48.32423000;14.29074500;2022-12-05T11:13:32;10.50;66.30
6556;DHT22;3311;48.32423000;14.29074500;2022-12-05T11:16:01;10.50;66.30
6556;DHT22;3311;48.32423000;14.29074500;2022-12-05T11:18:32;10.40;66.40
6556;DHT22;3311;48.32423000;14.29074500;2022-12-05T11:21:09;10.40;66.60
6556;DHT22;3311;48.32423000;14.29074500;2022-12-05T11:23:37;10.40;66.40
6556;DHT22;3311;48.32423000;14.29074500;2022-12-05T11:26:17;10.40;66.40
6556;DHT22;3311;48.32423000;14.29074500;2022-12-05T11:28:45;10.50;66.40
6556;DHT22;3311;48.32423000;14.29074500;2022-12-05T11:31:28;10.50;66.20
6556;DHT22;3311;48.32423000;14.29074500;2022-12-05T11:34:11;10.50;66.20
6556;DHT22;3311;48.32423000;14.29074500;2022-12-05T11:36:43;10.50;66.30
6556;DHT22;3311;48.32423000;14.29074500;2022-12-05T11:39:16;10.40;66.30
6556;DHT22;3311;48.32423000;14.29074500;2022-12-05T11:41:56;10.40;66.40
6556;DHT22;3311;48.32423000;14.29074500;2022-12-05T11:45:01;10.40;66.30
6556;DHT22;3311;48.32423000;14.29074500;2022-12-05T11:47:43;10.50;66.30
6556;DHT22;3311;48.32423000;14.29074500;2022-12-05T11:50:24;10.50;66.30
6556;DHT22;3311;48.32423000;14.29074500;2022-12-05T11:53:03;10.50;66.30
6556;DHT22;3311;48.32423000;14.29074500;2022-12-05T11:55:41;10.50;66.20
6556;DHT22;3311;48.32423000;14.29074500;2022-12-05T11:58:28;10.40;66.20
6556;DHT22;3311;48.32423000;14.29074500;2022-12-05T12:01:09;10.50;66.20
6556;DHT22;3311;48.32423000;14.29074500;2022-12-05T12:07:01;10.50;66.00
6556;DHT22;3311;48.32423000;14.29074500;2022-12-05T12:09:39;10.50;65.70
6556;DHT22;3311;48.32423000;14.29074500;2022-12-05T12:12:17;10.60;65.70
6556;DHT22;3311;48.32423000;14.29074500;2022-12-05T12:14:57;10.60;65.80
6556;DHT22;3311;48.32423000;14.29074500;2022-12-05T12:17:32;10.50;65.70
6556;DHT22;3311;48.32423000;14.29074500;2022-12-05T12:20:21;10.50;66.00
6556;DHT22;3311;48.32423000;14.29074500;2022-12-05T12:23:12;10.50;65.90
6556;DHT22;3311;48.32423000;14.29074500;2022-12-05T12:25:49;10.50;65.70
6556;DHT22;3311;48.32423000;14.29074500;2022-12-05T12:28:29;10.50;65.80
6556;DHT22;3311;48.32423000;14.29074500;2022-12-05T12:31:09;10.50;65.60
6556;DHT22;3311;48.32423000;14.29074500;2022-12-05T12:33:47;10.50;65.60
6556;DHT22;3311;48.32423000;14.29074500;2022-12-05T12:36:26;10.60;65.50
6556;DHT22;3311;48.32423000;14.29074500;2022-12-05T12:39:16;10.50;65.40
6556;DHT22;3311;48.32423000;14.29074500;2022-12-05T12:41:56;10.60;65.60
6556;DHT22;3311;48.32423000;14.29074500;2022-12-05T12:45:01;10.50;65.40
6556;DHT22;3311;48.32423000;14.29074500;2022-12-05T12:47:40;10.50;65.40
6556;DHT22;3311;48.32423000;14.29074500;2022-12-05T12:50:13;10.50;65.50
6556;DHT22;3311;48.32423000;14.29074500;2022-12-05T12:52:57;10.60;65.50
6556;DHT22;3311;48.32423000;14.29074500;2022-12-05T12:55:34;10.60;65.00
6556;DHT22;3311;48.32423000;14.29074500;2022-12-05T12:58:12;10.60;65.00
6556;DHT22;3311;48.32423000;14.29074500;2022-12-05T13:00:55;10.60;65.00
6556;DHT22;3311;48.32423000;14.29074500;2022-12-05T13:03:29;10.60;65.20
6556;DHT22;3311;48.32423000;14.29074500;2022-12-05T13:06:01;10.60;65.20
6556;DHT22;3311;48.32423000;14.29074500;2022-12-05T13:08:34;10.70;65.10
6556;DHT22;3311;48.32423000;14.29074500;2022-12-05T13:11:07;10.80;64.90
6556;DHT22;3311;48.32423000;14.29074500;2022-12-05T13:13:37;10.80;64.50
6556;DHT22;3311;48.32423000;14.29074500;2022-12-05T13:16:07;10.70;64.50
6556;DHT22;3311;48.32423000;14.29074500;2022-12-05T13:18:38;10.60;65.10
6556;DHT22;3311;48.32423000;14.29074500;2022-12-05T13:21:07;10.60;65.00
6556;DHT22;3311;48.32423000;14.29074500;2022-12-05T13:23:42;10.70;64.70
6556;DHT22;3311;48.32423000;14.29074500;2022-12-05T13:26:11;10.70;64.50
6556;DHT22;3311;48.32423000;14.29074500;2022-12-05T13:28:47;10.70;64.60
6556;DHT22;3311;48.32423000;14.29074500;2022-12-05T13:31:17;10.60;64.80
6556;DHT22;3311;48.32423000;14.29074500;2022-12-05T13:33:48;10.70;64.80
6556;DHT22;3311;48.32423000;14.29074500;2022-12-05T13:36:17;10.60;64.50
6556;DHT22;3311;48.32423000;14.29074500;2022-12-05T13:39:04;10.60;64.60
6556;DHT22;3311;48.32423000;14.29074500;2022-12-05T13:41:51;10.60;64.60
6556;DHT22;3311;48.32423000;14.29074500;2022-12-05T13:44:40;10.70;64.50
6556;DHT22;3311;48.32423000;14.29074500;2022-12-05T13:47:27;10.70;64.40
6556;DHT22;3311;48.32423000;14.29074500;2022-12-05T13:50:07;10.60;64.30
6556;DHT22;3311;48.32423000;14.29074500;2022-12-05T13:52:41;10.60;64.40
6556;DHT22;3311;48.32423000;14.29074500;2022-12-05T13:55:21;10.60;64.30
6556;DHT22;3311;48.32423000;14.29074500;2022-12-05T13:57:52;10.50;64.40
6556;DHT22;3311;48.32423000;14.29074500;2022-12-05T14:00:30;10.40;64.40
6556;DHT22;3311;48.32423000;14.29074500;2022-12-05T14:03:00;10.50;64.80
6556;DHT22;3311;48.32423000;14.29074500;2022-12-05T14:05:45;10.50;64.50
6556;DHT22;3311;48.32423000;14.29074500;2022-12-05T14:11:22;10.30;64.60
6556;DHT22;3311;48.32423000;14.29074500;2022-12-05T14:13:49;10.50;68.20
6556;DHT22;3311;48.32423000;14.29074500;2022-12-05T14:16:47;10.60;66.80
6556;DHT22;3311;48.32423000;14.29074500;2022-12-05T14:19:48;10.50;66.80
6556;DHT22;3311;48.32423000;14.29074500;2022-12-05T14:22:35;10.30;66.30
6556;DHT22;3311;48.32423000;14.29074500;2022-12-05T14:25:23;10.30;65.90
6556;DHT22;3311;48.32423000;14.29074500;2022-12-05T14:27:57;10.20;65.90
6556;DHT22;3311;48.32423000;14.29074500;2022-12-05T14:30:31;10.30;65.90
6556;DHT22;3311;48.32423000;14.29074500;2022-12-05T14:33:01;10.20;65.90
6556;DHT22;3311;48.32423000;14.29074500;2022-12-05T14:35:38;10.20;65.80
6556;DHT22;3311;48.32423000;14.29074500;2022-12-05T14:38:19;10.20;65.60
6556;DHT22;3311;48.32423000;14.29074500;2022-12-05T14:40:48;10.20;65.50
6556;DHT22;3311;48.32423000;14.29074500;2022-12-05T14:43:19;10.20;65.50
6556;DHT22;3311;48.32423000;14.29074500;2022-12-05T14:45:57;10.20;65.30
6556;DHT22;3311;48.32423000;14.29074500;2022-12-05T14:48:29;10.10;65.10
6556;DHT22;3311;48.32423000;14.29074500;2022-12-05T14:50:59;10.20;65.30
6556;DHT22;3311;48.32423000;14.29074500;2022-12-05T14:53:34;10.10;64.90
6556;DHT22;3311;48.32423000;14.29074500;2022-12-05T14:56:15;10.10;65.20
6556;DHT22;3311;48.32423000;14.29074500;2022-12-05T14:58:53;10.10;65.30
6556;DHT22;3311;48.32423000;14.29074500;2022-12-05T15:01:26;10.20;65.00
6556;DHT22;3311;48.32423000;14.29074500;2022-12-05T15:04:03;10.10;65.20
6556;DHT22;3311;48.32423000;14.29074500;2022-12-05T15:06:35;10.10;65.00
6556;DHT22;3311;48.32423000;14.29074500;2022-12-05T15:09:18;10.10;64.70
6556;DHT22;3311;48.32423000;14.29074500;2022-12-05T15:11:54;10.00;64.70
6556;DHT22;3311;48.32423000;14.29074500;2022-12-05T15:14:25;10.10;64.80
6556;DHT22;3311;48.32423000;14.29074500;2022-12-05T15:16:58;10.10;64.40
6556;DHT22;3311;48.32423000;14.29074500;2022-12-05T15:19:30;10.00;64.40
6556;DHT22;3311;48.32423000;14.29074500;2022-12-05T15:22:05;10.00;64.50
6556;DHT22;3311;48.32423000;14.29074500;2022-12-05T15:24:41;10.10;64.40
6556;DHT22;3311;48.32423000;14.29074500;2022-12-05T15:27:10;10.10;64.30
6556;DHT22;3311;48.32423000;14.29074500;2022-12-05T15:29:43;10.10;64.30
6556;DHT22;3311;48.32423000;14.29074500;2022-12-05T15:32:17;10.10;64.00
6556;DHT22;3311;48.32423000;14.29074500;2022-12-05T15:34:54;10.10;64.10
6556;DHT22;3311;48.32423000;14.29074500;2022-12-05T15:37:25;10.10;64.10
6556;DHT22;3311;48.32423000;14.29074500;2022-12-05T15:39:56;10.10;63.80
6556;DHT22;3311;48.32423000;14.29074500;2022-12-05T15:42:27;10.10;63.80
6556;DHT22;3311;48.32423000;14.29074500;2022-12-05T15:45:10;10.10;63.60
6556;DHT22;3311;48.32423000;14.29074500;2022-12-05T15:47:39;10.00;63.60
6556;DHT22;3311;48.32423000;14.29074500;2022-12-05T15:50:11;10.10;63.90
6556;DHT22;3311;48.32423000;14.29074500;2022-12-05T15:52:43;10.00;63.30
6556;DHT22;3311;48.32423000;14.29074500;2022-12-05T15:55:15;10.00;63.50
6556;DHT22;3311;48.32423000;14.29074500;2022-12-05T15:57:51;10.00;63.20
6556;DHT22;3311;48.32423000;14.29074500;2022-12-05T16:00:23;10.00;63.50
6556;DHT22;3311;48.32423000;14.29074500;2022-12-05T16:02:59;10.00;63.50
6556;DHT22;3311;48.32423000;14.29074500;2022-12-05T16:05:35;10.00;63.40
6556;DHT22;3311;48.32423000;14.29074500;2022-12-05T16:08:08;10.10;63.60
6556;DHT22;3311;48.32423000;14.29074500;2022-12-05T16:10:42;10.10;63.10
6556;DHT22;3311;48.32423000;14.29074500;2022-12-05T16:13:13;10.10;63.00
6556;DHT22;3311;48.32423000;14.29074500;2022-12-05T16:15:45;10.20;63.00
6556;DHT22;3311;48.32423000;14.29074500;2022-12-05T16:18:26;10.10;62.60
6556;DHT22;3311;48.32423000;14.29074500;2022-12-05T16:20:55;10.00;62.80
6556;DHT22;3311;48.32423000;14.29074500;2022-12-05T16:23:26;10.00;63.30
6556;DHT22;3311;48.32423000;14.29074500;2022-12-05T16:26:16;10.00;63.20
6556;DHT22;3311;48.32423000;14.29074500;2022-12-05T16:28:57;10.00;63.40
6556;DHT22;3311;48.32423000;14.29074500;2022-12-05T16:31:29;10.00;62.90
6556;DHT22;3311;48.32423000;14.29074500;2022-12-05T16:34:01;10.00;63.10
6556;DHT22;3311;48.32423000;14.29074500;2022-12-05T16:36:36;9.90;64.00
6556;DHT22;3311;48.32423000;14.29074500;2022-12-05T16:39:18;9.90;64.20
6556;DHT22;3311;48.32423000;14.29074500;2022-12-05T16:41:54;10.00;63.20
6556;DHT22;3311;48.32423000;14.29074500;2022-12-05T16:44:54;9.90;63.80
6556;DHT22;3311;48.32423000;14.29074500;2022-12-05T16:47:56;9.90;64.30
6556;DHT22;3311;48.32423000;14.29074500;2022-12-05T16:50:32;9.80;64.40
6556;DHT22;3311;48.32423000;14.29074500;2022-12-05T16:53:22;9.90;64.40
6556;DHT22;3311;48.32423000;14.29074500;2022-12-05T16:56:03;10.00;63.20
6556;DHT22;3311;48.32423000;14.29074500;2022-12-05T16:58:35;10.00;63.10
6556;DHT22;3311;48.32423000;14.29074500;2022-12-05T17:01:06;9.90;64.10
6556;DHT22;3311;48.32423000;14.29074500;2022-12-05T17:03:43;9.90;64.30
6556;DHT22;3311;48.32423000;14.29074500;2022-12-05T17:06:13;9.90;65.10
6556;DHT22;3311;48.32423000;14.29074500;2022-12-05T17:08:41;10.00;63.40
6556;DHT22;3311;48.32423000;14.29074500;2022-12-05T17:11:15;10.00;63.10
6556;DHT22;3311;48.32423000;14.29074500;2022-12-05T17:13:45;10.00;63.20
6556;DHT22;3311;48.32423000;14.29074500;2022-12-05T17:16:17;10.00;63.40
6556;DHT22;3311;48.32423000;14.29074500;2022-12-05T17:18:46;10.00;63.30
6556;DHT22;3311;48.32423000;14.29074500;2022-12-05T17:21:20;10.10;63.70
6556;DHT22;3311;48.32423000;14.29074500;2022-12-05T17:23:52;10.10;63.10
6556;DHT22;3311;48.32423000;14.29074500;2022-12-05T17:26:20;10.10;63.30
6556;DHT22;3311;48.32423000;14.29074500;2022-12-05T17:28:52;10.00;63.20
6556;DHT22;3311;48.32423000;14.29074500;2022-12-05T17:31:22;10.00;63.10
6556;DHT22;3311;48.32423000;14.29074500;2022-12-05T17:33:56;10.00;63.40
6556;DHT22;3311;48.32423000;14.29074500;2022-12-05T17:36:29;10.00;63.40
6556;DHT22;3311;48.32423000;14.29074500;2022-12-05T17:39:00;9.90;64.60
6556;DHT22;3311;48.32423000;14.29074500;2022-12-05T17:41:38;9.90;64.80
6556;DHT22;3311;48.32423000;14.29074500;2022-12-05T17:44:33;9.90;64.80
6556;DHT22;3311;48.32423000;14.29074500;2022-12-05T17:49:48;9.90;65.30
6556;DHT22;3311;48.32423000;14.29074500;2022-12-05T17:52:15;9.90;65.10
6556;DHT22;3311;48.32423000;14.29074500;2022-12-05T17:54:43;10.00;63.50
6556;DHT22;3311;48.32423000;14.29074500;2022-12-05T17:57:10;9.90;64.40
6556;DHT22;3311;48.32423000;14.29074500;2022-12-05T17:59:39;9.90;64.80
6556;DHT22;3311;48.32423000;14.29074500;2022-12-05T18:02:08;9.90;64.70
6556;DHT22;3311;48.32423000;14.29074500;2022-12-05T18:04:36;10.00;63.60
6556;DHT22;3311;48.32423000;14.29074500;2022-12-05T18:07:03;10.00;63.40
6556;DHT22;3311;48.32423000;14.29074500;2022-12-05T18:09:31;10.00;63.40
6556;DHT22;3311;48.32423000;14.29074500;2022-12-05T18:11:59;10.10;63.60
6556;DHT22;3311;48.32423000;14.29074500;2022-12-05T18:14:27;10.00;63.40
6556;DHT22;3311;48.32423000;14.29074500;2022-12-05T18:16:57;10.00;63.60
6556;DHT22;3311;48.32423000;14.29074500;2022-12-05T18:19:27;10.00;63.60
6556;DHT22;3311;48.32423000;14.29074500;2022-12-05T18:21:55;9.80;64.60
6556;DHT22;3311;48.32423000;14.29074500;2022-12-05T18:24:39;9.90;64.90
6556;DHT22;3311;48.32423000;14.29074500;2022-12-05T18:27:35;9.90;64.90
6556;DHT22;3311;48.32423000;14.29074500;2022-12-05T18:30:12;9.90;64.90
6556;DHT22;3311;48.32423000;14.29074500;2022-12-05T18:32:42;9.90;64.90
6556;DHT22;3311;48.32423000;14.29074500;2022-12-05T18:35:10;9.80;65.10
6556;DHT22;3311;48.32423000;14.29074500;2022-12-05T18:37:39;9.90;65.10
6556;DHT22;3311;48.32423000;14.29074500;2022-12-05T18:40:10;9.80;65.10
6556;DHT22;3311;48.32423000;14.29074500;2022-12-05T18:42:39;9.90;65.00
6556;DHT22;3311;48.32423000;14.29074500;2022-12-05T18:45:08;10.00;63.90
6556;DHT22;3311;48.32423000;14.29074500;2022-12-05T18:47:39;9.90;64.90
6556;DHT22;3311;48.32423000;14.29074500;2022-12-05T18:50:09;9.90;65.30
6556;DHT22;3311;48.32423000;14.29074500;2022-12-05T18:52:36;9.80;65.00
6556;DHT22;3311;48.32423000;14.29074500;2022-12-05T18:55:05;9.80;65.10
6556;DHT22;3311;48.32423000;14.29074500;2022-12-05T18:57:32;9.80;65.00
6556;DHT22;3311;48.32423000;14.29074500;2022-12-05T19:00:02;9.80;65.00
6556;DHT22;3311;48.32423000;14.29074500;2022-12-05T19:02:35;9.90;65.10
6556;DHT22;3311;48.32423000;14.29074500;2022-12-05T19:05:05;9.90;64.90
6556;DHT22;3311;48.32423000;14.29074500;2022-12-05T19:07:34;9.80;64.80
6556;DHT22;3311;48.32423000;14.29074500;2022-12-05T19:10:07;9.80;64.70
6556;DHT22;3311;48.32423000;14.29074500;2022-12-05T19:12:43;9.70;64.70
6556;DHT22;3311;48.32423000;14.29074500;2022-12-05T19:15:22;9.70;64.70
6556;DHT22;3311;48.32423000;14.29074500;2022-12-05T19:18:00;9.60;64.40
6556;DHT22;3311;48.32423000;14.29074500;2022-12-05T19:20:49;9.50;64.40
6556;DHT22;3311;48.32423000;14.29074500;2022-12-05T19:23:25;9.30;64.60
6556;DHT22;3311;48.32423000;14.29074500;2022-12-05T19:25:54;9.20;64.90
6556;DHT22;3311;48.32423000;14.29074500;2022-12-05T19:28:22;9.20;65.10
6556;DHT22;3311;48.32423000;14.29074500;2022-12-05T19:30:58;9.20;64.60
6556;DHT22;3311;48.32423000;14.29074500;2022-12-05T19:33:30;9.20;64.60
6556;DHT22;3311;48.32423000;14.29074500;2022-12-05T19:36:03;9.20;64.60
6556;DHT22;3311;48.32423000;14.29074500;2022-12-05T19:38:34;9.20;64.60
6556;DHT22;3311;48.32423000;14.29074500;2022-12-05T19:41:03;9.20;64.40
6556;DHT22;3311;48.32423000;14.29074500;2022-12-05T19:43:32;9.10;64.30
6556;DHT22;3311;48.32423000;14.29074500;2022-12-05T19:46:04;9.10;64.40
6556;DHT22;3311;48.32423000;14.29074500;2022-12-05T19:48:33;9.10;64.50
6556;DHT22;3311;48.32423000;14.29074500;2022-12-05T19:51:02;9.00;64.30
6556;DHT22;3311;48.32423000;14.29074500;2022-12-05T19:53:35;8.90;64.50
6556;DHT22;3311;48.32423000;14.29074500;2022-12-05T19:56:06;8.90;64.50
6556;DHT22;3311;48.32423000;14.29074500;2022-12-05T19:58:35;8.90;64.30
6556;DHT22;3311;48.32423000;14.29074500;2022-12-05T20:01:09;8.90;64.40
6556;DHT22;3311;48.32423000;14.29074500;2022-12-05T20:03:47;8.90;64.20
6556;DHT22;3311;48.32423000;14.29074500;2022-12-05T20:06:16;8.70;64.60
6556;DHT22;3311;48.32423000;14.29074500;2022-12-05T20:08:46;8.70;64.70
6556;DHT22;3311;48.32423000;14.29074500;2022-12-05T20:11:18;8.60;64.90
6556;DHT22;3311;48.32423000;14.29074500;2022-12-05T20:13:47;8.50;65.00
6556;DHT22;3311;48.32423000;14.29074500;2022-12-05T20:16:18;8.50;65.20
6556;DHT22;3311;48.32423000;14.29074500;2022-12-05T20:18:51;8.40;65.30
6556;DHT22;3311;48.32423000;14.29074500;2022-12-05T20:21:23;8.40;65.60
6556;DHT22;3311;48.32423000;14.29074500;2022-12-05T20:23:53;8.50;65.20
6556;DHT22;3311;48.32423000;14.29074500;2022-12-05T20:26:24;8.50;65.20
6556;DHT22;3311;48.32423000;14.29074500;2022-12-05T20:28:55;8.50;65.20
6556;DHT22;3311;48.32423000;14.29074500;2022-12-05T20:31:26;8.40;65.30
6556;DHT22;3311;48.32423000;14.29074500;2022-12-05T20:33:57;8.40;65.20
6556;DHT22;3311;48.32423000;14.29074500;2022-12-05T20:36:27;8.40;65.60
6556;DHT22;3311;48.32423000;14.29074500;2022-12-05T20:39:01;8.50;65.30
6556;DHT22;3311;48.32423000;14.29074500;2022-12-05T20:41:35;8.40;65.20
6556;DHT22;3311;48.32423000;14.29074500;2022-12-05T20:44:04;8.40;65.50
6556;DHT22;3311;48.32423000;14.29074500;2022-12-05T20:46:35;8.40;65.30
6556;DHT22;3311;48.32423000;14.29074500;2022-12-05T20:49:04;8.40;65.50
6556;DHT22;3311;48.32423000;14.29074500;2022-12-05T20:51:35;8.40;65.00
6556;DHT22;3311;48.32423000;14.29074500;2022-12-05T20:54:13;8.40;65.20
6556;DHT22;3311;48.32423000;14.29074500;2022-12-05T20:56:43;8.60;65.10
6556;DHT22;3311;48.32423000;14.29074500;2022-12-05T20:59:15;8.50;64.60
6556;DHT22;3311;48.32423000;14.29074500;2022-12-05T21:01:44;8.40;64.80
6556;DHT22;3311;48.32423000;14.29074500;2022-12-05T21:04:12;8.40;65.10
6556;DHT22;3311;48.32423000;14.29074500;2022-12-05T21:06:41;8.50;65.10
6556;DHT22;3311;48.32423000;14.29074500;2022-12-05T21:09:13;8.50;65.00
6556;DHT22;3311;48.32423000;14.29074500;2022-12-05T21:11:51;8.50;65.00
6556;DHT22;3311;48.32423000;14.29074500;2022-12-05T21:14:18;8.50;65.00
6556;DHT22;3311;48.32423000;14.29074500;2022-12-05T21:16:48;8.50;64.80
6556;DHT22;3311;48.32423000;14.29074500;2022-12-05T21:19:18;8.40;64.90
6556;DHT22;3311;48.32423000;14.29074500;2022-12-05T21:21:46;8.30;65.10
6556;DHT22;3311;48.32423000;14.29074500;2022-12-05T21:24:15;8.20;65.30
6556;DHT22;3311;48.32423000;14.29074500;2022-12-05T21:26:43;8.30;65.40
6556;DHT22;3311;48.32423000;14.29074500;2022-12-05T21:29:11;8.20;65.30
6556;DHT22;3311;48.32423000;14.29074500;2022-12-05T21:31:39;8.30;65.60
6556;DHT22;3311;48.32423000;14.29074500;2022-12-05T21:34:13;8.50;65.40
6556;DHT22;3311;48.32423000;14.29074500;2022-12-05T21:36:42;8.50;64.60
6556;DHT22;3311;48.32423000;14.29074500;2022-12-05T21:39:09;8.60;64.60
6556;DHT22;3311;48.32423000;14.29074500;2022-12-05T21:41:40;8.60;64.40
6556;DHT22;3311;48.32423000;14.29074500;2022-12-05T21:44:08;8.60;64.70
6556;DHT22;3311;48.32423000;14.29074500;2022-12-05T21:46:37;8.60;64.30
6556;DHT22;3311;48.32423000;14.29074500;2022-12-05T21:49:06;8.50;64.30
6556;DHT22;3311;48.32423000;14.29074500;2022-12-05T21:51:33;8.40;64.60
6556;DHT22;3311;48.32423000;14.29074500;2022-12-05T21:54:01;8.50;64.60
6556;DHT22;3311;48.32423000;14.29074500;2022-12-05T21:56:28;8.50;64.50
6556;DHT22;3311;48.32423000;14.29074500;2022-12-05T21:59:00;8.60;64.20
6556;DHT22;3311;48.32423000;14.29074500;2022-12-05T22:01:27;8.70;64.30
6556;DHT22;3311;48.32423000;14.29074500;2022-12-05T22:03:56;8.70;64.20
6556;DHT22;3311;48.32423000;14.29074500;2022-12-05T22:06:24;8.60;64.10
6556;DHT22;3311;48.32423000;14.29074500;2022-12-05T22:08:53;8.50;64.20
6556;DHT22;3311;48.32423000;14.29074500;2022-12-05T22:11:23;8.40;64.50
6556;DHT22;3311;48.32423000;14.29074500;2022-12-05T22:13:52;8.40;64.70
6556;DHT22;3311;48.32423000;14.29074500;2022-12-05T22:16:23;8.40;64.80
6556;DHT22;3311;48.32423000;14.29074500;2022-12-05T22:18:56;8.30;65.10
6556;DHT22;3311;48.32423000;14.29074500;2022-12-05T22:21:23;8.40;65.10
6556;DHT22;3311;48.32423000;14.29074500;2022-12-05T22:23:50;8.50;64.90
